createdAt,value
2018-12-05T09:43:47.156Z,12.57
2018-12-05T09:46:17.130Z,13.17
2018-12-05T09:48:48.980Z,14.07
2018-12-05T09:51:19.983Z,14.20
2018-12-05T09:53:49.512Z,13.67
2018-12-05T09:56:18.870Z,13.90
2018-12-05T09:58:48.183Z,12.17
2018-12-05T10:01:17.713Z,13.63
2018-12-05T10:03:47.448Z,14.40
2018-12-05T10:06:17.242Z,14.43
2018-12-05T10:08:46.630Z,14.20
2018-12-05T10:11:16.503Z,14.17
2018-12-05T10:13:45.934Z,13.93
2018-12-05T10:16:15.791Z,14.30
2018-12-05T10:18:46.000Z,14.90
2018-12-05T10:21:15.736Z,14.70
2018-12-05T10:23:45.189Z,14.97
2018-12-05T10:26:14.934Z,14.23
2018-12-05T10:28:44.769Z,15.00
2018-12-05T10:31:14.657Z,15.33
2018-12-05T10:33:44.567Z,15.80
2018-12-05T10:36:14.279Z,15.00
2018-12-05T10:38:43.495Z,14.93
2018-12-05T10:41:13.004Z,16.27
2018-12-05T10:43:42.970Z,16.27
2018-12-05T10:46:12.398Z,17.00
2018-12-05T10:48:42.391Z,15.77
2018-12-05T10:51:11.569Z,16.70
2018-12-05T10:53:41.184Z,17.90
2018-12-05T10:56:10.866Z,18.07
2018-12-05T10:58:40.625Z,18.60
2018-12-05T11:01:15.029Z,19.47
2018-12-05T11:03:45.106Z,18.97
2018-12-05T12:25:27.822Z,17.93
2018-12-05T12:27:57.659Z,18.47
2018-12-05T12:30:29.079Z,17.53
2018-12-05T12:32:59.177Z,18.37
2018-12-05T12:35:29.008Z,19.53
2018-12-05T12:37:59.506Z,18.30
2018-12-05T12:40:29.729Z,16.13
2018-12-05T12:42:59.145Z,15.13
2018-12-05T12:45:29.440Z,13.20
2018-12-05T12:47:59.336Z,13.37
2018-12-05T12:50:28.870Z,15.07
2018-12-05T12:52:58.374Z,13.53
2018-12-05T12:55:27.736Z,15.63
2018-12-05T12:57:57.102Z,16.07
2018-12-05T13:00:26.488Z,15.77
2018-12-05T13:02:57.117Z,18.97
2018-12-05T13:05:27.542Z,20.47
2018-12-05T13:07:56.881Z,21.43
2018-12-05T13:10:26.359Z,21.83
2018-12-05T13:12:56.071Z,20.53
2018-12-05T13:15:25.468Z,20.43
2018-12-05T13:17:55.853Z,21.20
2018-12-05T13:20:25.550Z,21.00
2018-12-05T13:22:55.195Z,20.23
2018-12-05T13:25:24.918Z,20.13
2018-12-05T13:27:54.307Z,19.23
2018-12-05T13:30:23.505Z,20.17
2018-12-05T13:32:52.850Z,19.37
2018-12-05T13:35:22.283Z,19.73
2018-12-05T13:37:51.729Z,19.43
2018-12-05T13:40:21.330Z,20.53
2018-12-05T13:42:51.075Z,20.93
2018-12-05T13:45:20.515Z,20.97
2018-12-05T13:47:49.953Z,20.73
2018-12-05T13:50:19.556Z,20.87
2018-12-05T13:52:49.342Z,20.33
2018-12-05T13:55:18.850Z,20.10
